sensor_id;sensor_type;location;lat;lon;timestamp;pressure;altitude;pressure_sealevel;temperature;humidity
10948;BME280;5526;42.070;24.752;2022-10-26T00:00:31;99170.94;;;16.81;63.29
10948;BME280;5526;42.070;24.752;2022-10-26T00:02:59;99200.59;;;16.88;63.75
10948;BME280;5526;42.070;24.752;2022-10-26T00:05:26;99201.59;;;16.92;64.07
10948;BME280;5526;42.070;24.752;2022-10-26T00:07:55;99206.53;;;16.99;63.94
10948;BME280;5526;42.070;24.752;2022-10-26T00:10:23;99221.13;;;17.02;64.56
10948;BME280;5526;42.070;24.752;2022-10-26T00:12:51;99128.38;;;16.49;64.27
10948;BME280;5526;42.070;24.752;2022-10-26T00:15:19;99149.38;;;16.64;63.63
10948;BME280;5526;42.070;24.752;2022-10-26T00:17:47;99152.16;;;16.91;61.88
10948;BME280;5526;42.070;24.752;2022-10-26T00:20:15;99144.44;;;17.09;60.41
10948;BME280;5526;42.070;24.752;2022-10-26T00:22:43;99201.88;;;17.42;60.91
10948;BME280;5526;42.070;24.752;2022-10-26T00:25:12;99189.47;;;17.19;61.95
10948;BME280;5526;42.070;24.752;2022-10-26T00:27:39;99196.53;;;17.10;62.33
10948;BME280;5526;42.070;24.752;2022-10-26T00:30:08;99168.59;;;16.93;61.78
10948;BME280;5526;42.070;24.752;2022-10-26T00:32:36;99173.69;;;17.09;60.95
10948;BME280;5526;42.070;24.752;2022-10-26T00:35:04;99192.06;;;17.37;59.92
10948;BME280;5526;42.070;24.752;2022-10-26T00:37:32;99175.47;;;17.45;58.87
10948;BME280;5526;42.070;24.752;2022-10-26T00:39:59;99126.06;;;17.39;57.94
10948;BME280;5526;42.070;24.752;2022-10-26T00:42:28;99185.56;;;18.02;56.82
10948;BME280;5526;42.070;24.752;2022-10-26T00:44:58;99220.34;;;18.33;55.89
10948;BME280;5526;42.070;24.752;2022-10-26T00:47:37;99199.28;;;18.36;54.73
10948;BME280;5526;42.070;24.752;2022-10-26T00:50:09;99201.13;;;18.49;54.94
10948;BME280;5526;42.070;24.752;2022-10-26T00:52:38;99188.66;;;18.58;54.03
10948;BME280;5526;42.070;24.752;2022-10-26T00:55:06;99212.47;;;18.90;53.49
10948;BME280;5526;42.070;24.752;2022-10-26T00:57:37;99153.22;;;18.58;53.19
10948;BME280;5526;42.070;24.752;2022-10-26T01:00:07;99193.31;;;18.88;52.58
10948;BME280;5526;42.070;24.752;2022-10-26T01:02:35;99191.69;;;19.01;52.51
10948;BME280;5526;42.070;24.752;2022-10-26T01:05:04;99171.31;;;19.05;51.76
10948;BME280;5526;42.070;24.752;2022-10-26T01:07:33;99165.84;;;19.10;51.26
10948;BME280;5526;42.070;24.752;2022-10-26T01:10:01;99212.13;;;19.49;51.56
10948;BME280;5526;42.070;24.752;2022-10-26T01:12:29;99141.53;;;19.11;50.69
10948;BME280;5526;42.070;24.752;2022-10-26T01:14:58;99163.94;;;19.24;50.90
10948;BME280;5526;42.070;24.752;2022-10-26T01:17:35;99191.84;;;19.48;50.30
10948;BME280;5526;42.070;24.752;2022-10-26T01:20:33;99118.78;;;19.14;50.34
10948;BME280;5526;42.070;24.752;2022-10-26T01:23:10;99177.13;;;19.51;50.35
10948;BME280;5526;42.070;24.752;2022-10-26T01:25:59;99122.00;;;19.24;49.88
10948;BME280;5526;42.070;24.752;2022-10-26T01:28:39;99167.56;;;19.58;50.79
10948;BME280;5526;42.070;24.752;2022-10-26T01:31:19;99140.59;;;19.38;49.11
10948;BME280;5526;42.070;24.752;2022-10-26T01:33:57;99176.69;;;19.57;48.91
10948;BME280;5526;42.070;24.752;2022-10-26T01:36:32;99209.59;;;19.75;48.90
10948;BME280;5526;42.070;24.752;2022-10-26T01:39:07;99166.44;;;19.51;49.56
10948;BME280;5526;42.070;24.752;2022-10-26T01:41:42;99140.97;;;19.45;48.90
10948;BME280;5526;42.070;24.752;2022-10-26T01:44:14;99202.53;;;19.87;48.72
10948;BME280;5526;42.070;24.752;2022-10-26T01:46:48;99158.00;;;19.66;48.50
10948;BME280;5526;42.070;24.752;2022-10-26T01:49:21;99181.78;;;19.76;48.74
10948;BME280;5526;42.070;24.752;2022-10-26T01:51:49;99183.19;;;19.73;49.02
10948;BME280;5526;42.070;24.752;2022-10-26T01:54:17;99166.81;;;19.66;49.36
10948;BME280;5526;42.070;24.752;2022-10-26T01:56:47;99176.88;;;19.69;49.35
10948;BME280;5526;42.070;24.752;2022-10-26T01:59:31;99152.59;;;19.49;49.14
10948;BME280;5526;42.070;24.752;2022-10-26T02:05:22;99171.59;;;19.47;49.80
10948;BME280;5526;42.070;24.752;2022-10-26T02:07:55;99167.03;;;19.48;49.89
10948;BME280;5526;42.070;24.752;2022-10-26T02:10:36;99171.41;;;19.44;49.72
10948;BME280;5526;42.070;24.752;2022-10-26T02:13:14;99179.78;;;19.51;49.66
10948;BME280;5526;42.070;24.752;2022-10-26T02:15:50;99203.88;;;19.68;49.53
10948;BME280;5526;42.070;24.752;2022-10-26T02:18:26;99146.09;;;19.33;49.33
10948;BME280;5526;42.070;24.752;2022-10-26T02:21:02;99224.38;;;19.81;49.49
10948;BME280;5526;42.070;24.752;2022-10-26T02:23:34;99195.44;;;19.74;49.46
10948;BME280;5526;42.070;24.752;2022-10-26T02:26:05;99192.50;;;19.84;48.81
10948;BME280;5526;42.070;24.752;2022-10-26T02:28:36;99181.78;;;19.76;48.86
10948;BME280;5526;42.070;24.752;2022-10-26T02:31:14;99229.31;;;19.96;49.61
10948;BME280;5526;42.070;24.752;2022-10-26T02:33:45;99194.31;;;19.75;49.79
10948;BME280;5526;42.070;24.752;2022-10-26T02:36:19;99204.56;;;19.82;50.05
10948;BME280;5526;42.070;24.752;2022-10-26T02:38:50;99176.88;;;19.69;50.64
10948;BME280;5526;42.070;24.752;2022-10-26T02:41:19;99149.94;;;19.49;50.58
10948;BME280;5526;42.070;24.752;2022-10-26T02:43:59;99182.03;;;19.66;51.03
10948;BME280;5526;42.070;24.752;2022-10-26T02:46:29;99168.53;;;19.62;50.75
10948;BME280;5526;42.070;24.752;2022-10-26T02:48:57;99192.16;;;19.77;51.02
10948;BME280;5526;42.070;24.752;2022-10-26T02:51:30;99184.44;;;19.76;51.10
10948;BME280;5526;42.070;24.752;2022-10-26T02:54:06;99188.69;;;19.77;50.90
10948;BME280;5526;42.070;24.752;2022-10-26T02:56:42;99137.69;;;19.48;50.93
10948;BME280;5526;42.070;24.752;2022-10-26T02:59:14;99153.09;;;19.51;51.07
10948;BME280;5526;42.070;24.752;2022-10-26T03:01:43;99162.22;;;19.58;50.82
10948;BME280;5526;42.070;24.752;2022-10-26T03:04:14;99185.66;;;19.70;50.88
10948;BME280;5526;42.070;24.752;2022-10-26T03:06:51;99187.56;;;19.69;50.37
10948;BME280;5526;42.070;24.752;2022-10-26T03:09:19;99173.16;;;19.48;50.84
10948;BME280;5526;42.070;24.752;2022-10-26T03:11:46;99203.38;;;19.57;50.96
10948;BME280;5526;42.070;24.752;2022-10-26T03:14:14;99199.38;;;19.46;51.21
10948;BME280;5526;42.070;24.752;2022-10-26T03:16:41;99179.31;;;19.27;51.60
10948;BME280;5526;42.070;24.752;2022-10-26T03:19:09;99202.59;;;19.35;51.87
10948;BME280;5526;42.070;24.752;2022-10-26T03:21:37;99207.47;;;19.33;52.05
10948;BME280;5526;42.070;24.752;2022-10-26T03:24:06;99188.63;;;19.29;52.30
10948;BME280;5526;42.070;24.752;2022-10-26T03:26:34;99190.66;;;19.32;52.42
10948;BME280;5526;42.070;24.752;2022-10-26T03:29:02;99210.97;;;19.42;52.48
10948;BME280;5526;42.070;24.752;2022-10-26T03:31:29;99179.25;;;19.18;52.61
10948;BME280;5526;42.070;24.752;2022-10-26T03:33:57;99158.44;;;19.07;52.35
10948;BME280;5526;42.070;24.752;2022-10-26T03:36:24;99146.94;;;18.98;52.84
10948;BME280;5526;42.070;24.752;2022-10-26T03:38:52;99183.50;;;19.19;53.07
10948;BME280;5526;42.070;24.752;2022-10-26T03:41:21;99236.09;;;19.41;53.41
10948;BME280;5526;42.070;24.752;2022-10-26T03:43:49;99168.56;;;18.96;53.42
10948;BME280;5526;42.070;24.752;2022-10-26T03:46:17;99184.06;;;19.08;53.16
10948;BME280;5526;42.070;24.752;2022-10-26T03:48:44;99204.03;;;19.19;52.80
10948;BME280;5526;42.070;24.752;2022-10-26T03:51:12;99180.66;;;19.16;52.31
10948;BME280;5526;42.070;24.752;2022-10-26T03:53:40;99235.50;;;19.44;52.34
10948;BME280;5526;42.070;24.752;2022-10-26T03:56:07;99250.53;;;19.40;52.66
10948;BME280;5526;42.070;24.752;2022-10-26T03:58:36;99183.78;;;18.96;53.10
10948;BME280;5526;42.070;24.752;2022-10-26T04:01:04;99178.63;;;18.77;53.47
10948;BME280;5526;42.070;24.752;2022-10-26T04:03:31;99206.25;;;18.81;54.01
10948;BME280;5526;42.070;24.752;2022-10-26T04:06:00;99165.50;;;18.45;54.28
10948;BME280;5526;42.070;24.752;2022-10-26T04:08:27;99215.50;;;18.75;54.39
10948;BME280;5526;42.070;24.752;2022-10-26T04:10:55;99216.88;;;18.73;53.99
10948;BME280;5526;42.070;24.752;2022-10-26T04:13:22;99263.50;;;18.97;54.14
10948;BME280;5526;42.070;24.752;2022-10-26T04:15:51;99218.44;;;18.74;53.73
10948;BME280;5526;42.070;24.752;2022-10-26T04:18:19;99235.00;;;18.84;53.66
10948;BME280;5526;42.070;24.752;2022-10-26T04:20:47;99245.50;;;18.81;53.99
10948;BME280;5526;42.070;24.752;2022-10-26T04:23:16;99265.03;;;18.90;54.32
10948;BME280;5526;42.070;24.752;2022-10-26T04:25:44;99171.91;;;18.31;54.07
10948;BME280;5526;42.070;24.752;2022-10-26T04:28:13;99280.75;;;18.78;53.85
10948;BME280;5526;42.070;24.752;2022-10-26T04:30:41;99222.75;;;18.48;53.95
10948;BME280;5526;42.070;24.752;2022-10-26T04:33:09;99295.66;;;18.79;53.96
10948;BME280;5526;42.070;24.752;2022-10-26T04:35:37;99288.09;;;18.59;53.88
10948;BME280;5526;42.070;24.752;2022-10-26T04:38:05;99260.72;;;18.13;55.50
10948;BME280;5526;42.070;24.752;2022-10-26T04:40:33;99253.81;;;17.85;56.25
10948;BME280;5526;42.070;24.752;2022-10-26T04:43:01;99259.41;;;17.83;56.93
10948;BME280;5526;42.070;24.752;2022-10-26T04:45:29;99281.16;;;18.04;57.00
10948;BME280;5526;42.070;24.752;2022-10-26T04:48:01;99243.84;;;17.77;57.13
10948;BME280;5526;42.070;24.752;2022-10-26T04:50:30;99257.34;;;17.80;57.18
10948;BME280;5526;42.070;24.752;2022-10-26T04:52:58;99297.53;;;18.11;57.21
10948;BME280;5526;42.070;24.752;2022-10-26T04:55:26;99302.28;;;18.27;57.24
10948;BME280;5526;42.070;24.752;2022-10-26T04:57:53;99281.47;;;18.16;57.24
10948;BME280;5526;42.070;24.752;2022-10-26T05:00:21;99262.41;;;18.09;57.29
10948;BME280;5526;42.070;24.752;2022-10-26T05:02:49;99254.34;;;18.00;57.39
10948;BME280;5526;42.070;24.752;2022-10-26T05:05:16;99247.00;;;18.06;57.17
10948;BME280;5526;42.070;24.752;2022-10-26T05:07:52;99293.03;;;18.38;57.64
10948;BME280;5526;42.070;24.752;2022-10-26T05:10:20;99289.88;;;18.36;57.17
10948;BME280;5526;42.070;24.752;2022-10-26T05:12:50;99324.25;;;18.65;57.20
10948;BME280;5526;42.070;24.752;2022-10-26T05:15:18;99302.69;;;18.61;57.16
10948;BME280;5526;42.070;24.752;2022-10-26T05:17:45;99273.78;;;18.55;56.82
10948;BME280;5526;42.070;24.752;2022-10-26T05:20:13;99255.72;;;18.52;56.34
10948;BME280;5526;42.070;24.752;2022-10-26T05:22:41;99275.72;;;18.76;56.16
10948;BME280;5526;42.070;24.752;2022-10-26T05:25:10;99273.16;;;18.85;56.33
10948;BME280;5526;42.070;24.752;2022-10-26T05:27:37;99273.81;;;18.90;55.98
10948;BME280;5526;42.070;24.752;2022-10-26T05:30:06;99302.09;;;19.13;55.76
10948;BME280;5526;42.070;24.752;2022-10-26T05:32:35;99282.25;;;19.06;55.50
10948;BME280;5526;42.070;24.752;2022-10-26T05:35:03;99277.31;;;19.13;55.72
10948;BME280;5526;42.070;24.752;2022-10-26T05:37:31;99291.91;;;19.29;55.47
10948;BME280;5526;42.070;24.752;2022-10-26T05:39:58;99299.56;;;19.44;55.70
10948;BME280;5526;42.070;24.752;2022-10-26T05:42:28;99342.81;;;19.76;55.12
10948;BME280;5526;42.070;24.752;2022-10-26T05:44:55;99301.22;;;19.62;55.08
10948;BME280;5526;42.070;24.752;2022-10-26T05:47:23;99276.00;;;19.46;54.58
10948;BME280;5526;42.070;24.752;2022-10-26T05:49:51;99310.09;;;19.71;54.52
10948;BME280;5526;42.070;24.752;2022-10-26T05:52:18;99328.00;;;19.92;54.17
10948;BME280;5526;42.070;24.752;2022-10-26T05:54:46;99316.66;;;19.95;53.83
10948;BME280;5526;42.070;24.752;2022-10-26T05:57:14;99350.97;;;20.24;53.35
10948;BME280;5526;42.070;24.752;2022-10-26T05:59:44;99272.94;;;19.83;53.46
10948;BME280;5526;42.070;24.752;2022-10-26T06:02:18;99282.44;;;19.97;53.22
10948;BME280;5526;42.070;24.752;2022-10-26T06:04:50;99298.56;;;20.14;53.20
10948;BME280;5526;42.070;24.752;2022-10-26T06:07:21;99278.59;;;20.12;52.75
10948;BME280;5526;42.070;24.752;2022-10-26T06:09:53;99314.69;;;20.31;52.02
10948;BME280;5526;42.070;24.752;2022-10-26T06:12:21;99329.53;;;20.46;52.25
10948;BME280;5526;42.070;24.752;2022-10-26T06:14:53;99324.38;;;20.58;52.14
10948;BME280;5526;42.070;24.752;2022-10-26T06:17:37;99322.16;;;20.60;51.53
10948;BME280;5526;42.070;24.752;2022-10-26T06:20:20;99340.47;;;20.75;51.21
10948;BME280;5526;42.070;24.752;2022-10-26T06:23:00;99328.03;;;20.79;50.71
10948;BME280;5526;42.070;24.752;2022-10-26T06:25:41;99373.00;;;21.16;51.09
10948;BME280;5526;42.070;24.752;2022-10-26T06:28:22;99333.25;;;20.84;50.25
10948;BME280;5526;42.070;24.752;2022-10-26T06:30:56;99323.19;;;20.81;50.51
10948;BME280;5526;42.070;24.752;2022-10-26T06:33:24;99350.66;;;21.12;50.21
10948;BME280;5526;42.070;24.752;2022-10-26T06:36:07;99334.09;;;21.10;49.65
10948;BME280;5526;42.070;24.752;2022-10-26T06:38:37;99341.66;;;21.08;49.96
10948;BME280;5526;42.070;24.752;2022-10-26T06:41:10;99377.91;;;21.31;50.05
10948;BME280;5526;42.070;24.752;2022-10-26T06:43:40;99377.75;;;21.36;49.91
10948;BME280;5526;42.070;24.752;2022-10-26T06:46:13;99347.97;;;21.29;49.62
10948;BME280;5526;42.070;24.752;2022-10-26T06:48:47;99330.66;;;21.10;50.09
10948;BME280;5526;42.070;24.752;2022-10-26T06:51:19;99316.47;;;21.26;49.63
10948;BME280;5526;42.070;24.752;2022-10-26T06:53:51;99311.13;;;21.26;48.94
10948;BME280;5526;42.070;24.752;2022-10-26T06:56:21;99336.31;;;21.51;49.04
10948;BME280;5526;42.070;24.752;2022-10-26T06:58:51;99371.31;;;21.71;47.73
10948;BME280;5526;42.070;24.752;2022-10-26T07:01:21;99326.09;;;21.44;48.43
10948;BME280;5526;42.070;24.752;2022-10-26T07:03:49;99331.41;;;21.61;47.96
10948;BME280;5526;42.070;24.752;2022-10-26T07:06:16;99336.63;;;21.66;47.57
10948;BME280;5526;42.070;24.752;2022-10-26T07:08:44;99336.94;;;21.73;47.25
10948;BME280;5526;42.070;24.752;2022-10-26T07:11:11;99344.03;;;21.78;47.02
10948;BME280;5526;42.070;24.752;2022-10-26T07:13:39;99364.97;;;21.93;47.05
10948;BME280;5526;42.070;24.752;2022-10-26T07:16:07;99372.84;;;21.89;47.07
10948;BME280;5526;42.070;24.752;2022-10-26T07:18:36;99376.78;;;22.09;47.03
10948;BME280;5526;42.070;24.752;2022-10-26T07:21:04;99394.84;;;22.37;46.27
10948;BME280;5526;42.070;24.752;2022-10-26T07:23:31;99340.19;;;22.13;45.68
10948;BME280;5526;42.070;24.752;2022-10-26T07:25:59;99346.34;;;22.13;45.61
10948;BME280;5526;42.070;24.752;2022-10-26T07:28:27;99375.59;;;22.35;45.13
10948;BME280;5526;42.070;24.752;2022-10-26T07:30:57;99403.19;;;22.44;45.62
10948;BME280;5526;42.070;24.752;2022-10-26T07:33:25;99356.56;;;22.11;44.90
10948;BME280;5526;42.070;24.752;2022-10-26T07:35:54;99366.44;;;22.36;45.02
10948;BME280;5526;42.070;24.752;2022-10-26T07:38:21;99383.81;;;22.30;45.14
10948;BME280;5526;42.070;24.752;2022-10-26T07:40:49;99363.81;;;22.19;45.15
10948;BME280;5526;42.070;24.752;2022-10-26T07:43:19;99394.97;;;22.41;45.18
10948;BME280;5526;42.070;24.752;2022-10-26T07:45:48;99382.13;;;22.63;44.63
10948;BME280;5526;42.070;24.752;2022-10-26T07:48:16;99366.84;;;22.55;44.63
10948;BME280;5526;42.070;24.752;2022-10-26T07:50:44;99398.34;;;23.04;43.97
10948;BME280;5526;42.070;24.752;2022-10-26T07:53:13;99366.34;;;23.20;43.37
10948;BME280;5526;42.070;24.752;2022-10-26T07:55:40;99374.38;;;22.99;43.31
10948;BME280;5526;42.070;24.752;2022-10-26T07:58:08;99357.53;;;22.90;43.21
10948;BME280;5526;42.070;24.752;2022-10-26T08:00:35;99411.00;;;23.33;42.76
10948;BME280;5526;42.070;24.752;2022-10-26T08:03:03;99351.50;;;22.93;42.65
10948;BME280;5526;42.070;24.752;2022-10-26T08:05:30;99336.72;;;23.08;42.45
10948;BME280;5526;42.070;24.752;2022-10-26T08:07:58;99356.75;;;23.10;42.67
10948;BME280;5526;42.070;24.752;2022-10-26T08:10:27;99324.47;;;22.78;42.88
10948;BME280;5526;42.070;24.752;2022-10-26T08:12:55;99394.69;;;23.09;42.90
10948;BME280;5526;42.070;24.752;2022-10-26T08:15:23;99368.34;;;23.31;41.63
10948;BME280;5526;42.070;24.752;2022-10-26T08:17:50;99372.72;;;23.36;41.59
10948;BME280;5526;42.070;24.752;2022-10-26T08:20:18;99369.97;;;23.44;41.34
10948;BME280;5526;42.070;24.752;2022-10-26T08:22:46;99377.66;;;23.34;41.22
10948;BME280;5526;42.070;24.752;2022-10-26T08:25:13;99381.00;;;23.51;41.17
10948;BME280;5526;42.070;24.752;2022-10-26T08:27:42;99372.13;;;23.51;40.78
10948;BME280;5526;42.070;24.752;2022-10-26T08:30:11;99362.44;;;24.23;38.68
10948;BME280;5526;42.070;24.752;2022-10-26T08:32:38;99382.47;;;24.14;39.49
10948;BME280;5526;42.070;24.752;2022-10-26T08:35:07;99342.06;;;24.83;37.14
10948;BME280;5526;42.070;24.752;2022-10-26T08:37:35;99408.44;;;24.42;38.61
10948;BME280;5526;42.070;24.752;2022-10-26T08:40:03;99361.72;;;24.02;38.87
10948;BME280;5526;42.070;24.752;2022-10-26T08:42:36;99394.06;;;24.26;38.17
10948;BME280;5526;42.070;24.752;2022-10-26T08:45:14;99392.28;;;24.30;36.93
10948;BME280;5526;42.070;24.752;2022-10-26T08:47:46;99363.56;;;24.34;36.97
10948;BME280;5526;42.070;24.752;2022-10-26T08:50:21;99390.81;;;24.45;37.03
10948;BME280;5526;42.070;24.752;2022-10-26T08:52:55;99385.56;;;24.36;37.53
10948;BME280;5526;42.070;24.752;2022-10-26T08:55:33;99381.81;;;24.17;36.25
10948;BME280;5526;42.070;24.752;2022-10-26T08:58:12;99354.34;;;24.11;36.99
10948;BME280;5526;42.070;24.752;2022-10-26T09:00:44;99361.03;;;24.50;35.91
10948;BME280;5526;42.070;24.752;2022-10-26T09:03:15;99385.97;;;24.71;35.95
10948;BME280;5526;42.070;24.752;2022-10-26T09:08:52;99366.94;;;24.55;35.89
10948;BME280;5526;42.070;24.752;2022-10-26T09:11:35;99353.50;;;24.55;35.74
10948;BME280;5526;42.070;24.752;2022-10-26T09:14:12;99412.53;;;25.09;35.62
10948;BME280;5526;42.070;24.752;2022-10-26T09:16:50;99404.22;;;26.05;32.85
10948;BME280;5526;42.070;24.752;2022-10-26T09:19:45;99390.31;;;25.12;33.88
10948;BME280;5526;42.070;24.752;2022-10-26T09:22:22;99373.16;;;24.80;34.86
10948;BME280;5526;42.070;24.752;2022-10-26T09:24:55;99321.88;;;24.40;35.19
10948;BME280;5526;42.070;24.752;2022-10-26T09:27:26;99344.53;;;24.51;35.21
10948;BME280;5526;42.070;24.752;2022-10-26T09:29:54;99350.41;;;24.66;35.50
10948;BME280;5526;42.070;24.752;2022-10-26T09:32:28;99332.09;;;24.59;35.41
10948;BME280;5526;42.070;24.752;2022-10-26T09:34:59;99384.38;;;25.06;35.19
10948;BME280;5526;42.070;24.752;2022-10-26T09:37:33;99355.34;;;24.88;34.98
10948;BME280;5526;42.070;24.752;2022-10-26T09:40:08;99377.97;;;24.99;34.64
10948;BME280;5526;42.070;24.752;2022-10-26T09:42:42;99341.97;;;24.67;34.36
10948;BME280;5526;42.070;24.752;2022-10-26T09:45:15;99332.44;;;24.70;34.33
10948;BME280;5526;42.070;24.752;2022-10-26T09:47:48;99385.81;;;25.16;34.27
10948;BME280;5526;42.070;24.752;2022-10-26T09:50:22;99351.72;;;24.96;34.64
10948;BME280;5526;42.070;24.752;2022-10-26T09:52:51;99356.22;;;25.43;34.22
10948;BME280;5526;42.070;24.752;2022-10-26T09:55:19;99342.38;;;25.57;34.15
10948;BME280;5526;42.070;24.752;2022-10-26T09:57:50;99352.47;;;25.87;33.63
10948;BME280;5526;42.070;24.752;2022-10-26T10:00:20;99372.56;;;26.17;33.24
10948;BME280;5526;42.070;24.752;2022-10-26T10:02:52;99350.34;;;26.24;32.63
10948;BME280;5526;42.070;24.752;2022-10-26T10:05:23;99325.38;;;26.27;32.23
10948;BME280;5526;42.070;24.752;2022-10-26T10:07:51;99367.53;;;26.31;32.28
10948;BME280;5526;42.070;24.752;2022-10-26T10:10:21;99330.56;;;25.89;32.55
10948;BME280;5526;42.070;24.752;2022-10-26T10:12:50;99335.31;;;25.80;32.68
10948;BME280;5526;42.070;24.752;2022-10-26T10:15:21;99376.91;;;26.37;32.52
10948;BME280;5526;42.070;24.752;2022-10-26T10:17:52;99305.09;;;26.02;32.25
10948;BME280;5526;42.070;24.752;2022-10-26T10:20:23;99318.34;;;26.22;32.12
10948;BME280;5526;42.070;24.752;2022-10-26T10:22:53;99302.22;;;26.26;32.15
10948;BME280;5526;42.070;24.752;2022-10-26T10:25:25;99311.09;;;26.42;32.17
10948;BME280;5526;42.070;24.752;2022-10-26T10:27:53;99329.47;;;26.36;31.93
10948;BME280;5526;42.070;24.752;2022-10-26T10:30:22;99341.41;;;26.35;32.28
10948;BME280;5526;42.070;24.752;2022-10-26T10:33:10;99304.25;;;26.29;31.61
10948;BME280;5526;42.070;24.752;2022-10-26T10:35:45;99298.66;;;26.37;31.75
10948;BME280;5526;42.070;24.752;2022-10-26T10:38:17;99360.56;;;26.77;31.64
10948;BME280;5526;42.070;24.752;2022-10-26T10:40:50;99308.13;;;26.47;31.57
10948;BME280;5526;42.070;24.752;2022-10-26T10:43:19;99282.38;;;26.49;31.66
10948;BME280;5526;42.070;24.752;2022-10-26T10:45:50;99319.44;;;26.83;31.30
10948;BME280;5526;42.070;24.752;2022-10-26T10:48:20;99320.31;;;26.56;30.96
10948;BME280;5526;42.070;24.752;2022-10-26T10:50:54;99333.72;;;26.84;30.62
10948;BME280;5526;42.070;24.752;2022-10-26T10:53:25;99324.50;;;26.54;31.10
10948;BME280;5526;42.070;24.752;2022-10-26T10:56:09;99308.16;;;26.31;30.98
10948;BME280;5526;42.070;24.752;2022-10-26T10:58:48;99301.00;;;26.39;30.94
10948;BME280;5526;42.070;24.752;2022-10-26T11:01:20;99306.59;;;26.30;31.03
10948;BME280;5526;42.070;24.752;2022-10-26T11:04:08;99282.44;;;26.68;31.00
10948;BME280;5526;42.070;24.752;2022-10-26T11:06:42;99260.25;;;26.59;30.74
10948;BME280;5526;42.070;24.752;2022-10-26T11:09:14;99283.22;;;26.69;31.24
10948;BME280;5526;42.070;24.752;2022-10-26T11:11:46;99246.78;;;26.78;30.68
10948;BME280;5526;42.070;24.752;2022-10-26T11:14:18;99268.06;;;26.99;30.33
10948;BME280;5526;42.070;24.752;2022-10-26T11:16:54;99275.03;;;27.00;30.65
10948;BME280;5526;42.070;24.752;2022-10-26T11:19:28;99298.09;;;27.32;30.89
10948;BME280;5526;42.070;24.752;2022-10-26T11:21:57;99282.47;;;27.22;30.28
10948;BME280;5526;42.070;24.752;2022-10-26T11:24:27;99264.06;;;27.12;30.33
10948;BME280;5526;42.070;24.752;2022-10-26T11:26:59;99276.38;;;27.09;30.48
10948;BME280;5526;42.070;24.752;2022-10-26T11:29:34;99281.09;;;27.12;30.57
10948;BME280;5526;42.070;24.752;2022-10-26T11:32:13;99265.72;;;27.16;30.28
10948;BME280;5526;42.070;24.752;2022-10-26T11:34:48;99298.25;;;27.39;30.24
10948;BME280;5526;42.070;24.752;2022-10-26T11:37:22;99300.78;;;27.70;30.23
10948;BME280;5526;42.070;24.752;2022-10-26T11:40:03;99288.69;;;27.83;29.75
10948;BME280;5526;42.070;24.752;2022-10-26T11:42:35;99259.59;;;27.57;29.69
10948;BME280;5526;42.070;24.752;2022-10-26T11:45:15;99256.75;;;27.12;29.89
10948;BME280;5526;42.070;24.752;2022-10-26T11:47:50;99272.56;;;27.29;30.46
10948;BME280;5526;42.070;24.752;2022-10-26T11:50:22;99263.94;;;27.43;30.14
10948;BME280;5526;42.070;24.752;2022-10-26T11:52:56;99305.97;;;27.78;29.82
10948;BME280;5526;42.070;24.752;2022-10-26T11:55:28;99244.00;;;27.51;29.68
10948;BME280;5526;42.070;24.752;2022-10-26T11:58:00;99268.69;;;27.68;29.64
10948;BME280;5526;42.070;24.752;2022-10-26T12:00:29;99269.88;;;27.71;29.75
10948;BME280;5526;42.070;24.752;2022-10-26T12:03:02;99241.72;;;27.53;29.07
10948;BME280;5526;42.070;24.752;2022-10-26T12:05:45;99269.16;;;27.32;29.15
10948;BME280;5526;42.070;24.752;2022-10-26T12:08:17;99265.00;;;27.57;29.63
10948;BME280;5526;42.070;24.752;2022-10-26T12:10:51;99270.22;;;27.47;29.17
10948;BME280;5526;42.070;24.752;2022-10-26T12:13:35;99262.38;;;27.61;29.47
10948;BME280;5526;42.070;24.752;2022-10-26T12:16:11;99252.59;;;27.75;29.23
10948;BME280;5526;42.070;24.752;2022-10-26T12:18:44;99261.28;;;27.65;29.17
10948;BME280;5526;42.070;24.752;2022-10-26T12:21:18;99247.88;;;27.12;29.33
10948;BME280;5526;42.070;24.752;2022-10-26T12:26:53;99231.88;;;27.64;29.15
10948;BME280;5526;42.070;24.752;2022-10-26T12:29:39;99243.53;;;27.68;28.89
10948;BME280;5526;42.070;24.752;2022-10-26T12:32:50;99239.28;;;27.67;28.96
10948;BME280;5526;42.070;24.752;2022-10-26T12:35:41;99248.41;;;27.59;28.88
10948;BME280;5526;42.070;24.752;2022-10-26T12:41:23;99279.16;;;28.15;28.70
10948;BME280;5526;42.070;24.752;2022-10-26T12:44:30;99234.66;;;28.13;29.11
10948;BME280;5526;42.070;24.752;2022-10-26T12:46:54;99248.59;;;28.37;28.79
10948;BME280;5526;42.070;24.752;2022-10-26T12:52:49;99251.69;;;28.39;28.10
10948;BME280;5526;42.070;24.752;2022-10-26T12:55:51;99233.91;;;28.12;28.41
10948;BME280;5526;42.070;24.752;2022-10-26T12:58:41;99231.00;;;27.79;29.28
10948;BME280;5526;42.070;24.752;2022-10-26T13:01:38;99260.28;;;27.96;29.48
10948;BME280;5526;42.070;24.752;2022-10-26T13:04:19;99290.25;;;28.29;29.36
10948;BME280;5526;42.070;24.752;2022-10-26T13:07:13;99232.88;;;27.97;29.43
10948;BME280;5526;42.070;24.752;2022-10-26T13:09:49;99263.88;;;27.81;29.80
10948;BME280;5526;42.070;24.752;2022-10-26T13:12:19;99268.09;;;27.78;30.01
10948;BME280;5526;42.070;24.752;2022-10-26T13:14:59;99254.72;;;27.66;30.13
10948;BME280;5526;42.070;24.752;2022-10-26T13:17:31;99259.88;;;27.52;29.96
10948;BME280;5526;42.070;24.752;2022-10-26T13:20:00;99230.25;;;26.99;30.47
10948;BME280;5526;42.070;24.752;2022-10-26T13:22:29;99254.28;;;27.23;30.34
10948;BME280;5526;42.070;24.752;2022-10-26T13:24:58;99241.66;;;27.11;30.61
10948;BME280;5526;42.070;24.752;2022-10-26T13:27:42;99244.81;;;27.13;30.87
10948;BME280;5526;42.070;24.752;2022-10-26T13:30:34;99247.91;;;27.15;30.44
10948;BME280;5526;42.070;24.752;2022-10-26T13:33:08;99252.47;;;27.11;30.62
10948;BME280;5526;42.070;24.752;2022-10-26T13:35:41;99216.22;;;26.93;30.79
10948;BME280;5526;42.070;24.752;2022-10-26T13:38:11;99246.00;;;27.16;30.46
10948;BME280;5526;42.070;24.752;2022-10-26T13:40:40;99241.16;;;27.06;30.31